createdAt,value
2023-08-14T00:00:31.364Z,27.85
2023-08-14T00:03:38.277Z,27.78
2023-08-14T00:06:45.704Z,27.69
2023-08-14T00:09:52.717Z,27.62
2023-08-14T00:13:02.372Z,27.56
2023-08-14T00:16:12.852Z,27.48
2023-08-14T00:19:21.312Z,27.41
2023-08-14T00:22:28.401Z,27.33
2023-08-14T00:25:36.475Z,27.25
2023-08-14T00:28:42.416Z,27.18
2023-08-14T00:31:51.962Z,27.15
2023-08-14T00:35:02.212Z,27.11
2023-08-14T00:38:09.272Z,27.07
2023-08-14T00:41:19.455Z,27.05
2023-08-14T00:44:35.383Z,27.02
2023-08-14T00:47:49.595Z,27.06
2023-08-14T00:50:58.980Z,27.04
2023-08-14T00:54:07.398Z,27.08
2023-08-14T00:57:14.589Z,27.07
2023-08-14T01:00:20.624Z,27.05
2023-08-14T01:03:31.410Z,27.11
2023-08-14T01:06:42.759Z,27.09
2023-08-14T01:09:52.390Z,27.12
2023-08-14T01:13:20.856Z,27.06
2023-08-14T01:16:35.031Z,27.01
2023-08-14T01:19:48.685Z,26.97
2023-08-14T01:23:09.367Z,26.98
2023-08-14T01:26:21.267Z,27.04
2023-08-14T01:29:28.546Z,27.02
2023-08-14T01:32:35.729Z,27.02
2023-08-14T01:35:49.098Z,27.00
2023-08-14T01:39:11.370Z,26.99
2023-08-14T01:42:32.322Z,26.97
2023-08-14T01:45:45.452Z,26.96
2023-08-14T01:48:56.808Z,26.92
2023-08-14T01:52:09.762Z,26.93
2023-08-14T01:55:17.355Z,26.94
2023-08-14T01:58:28.377Z,26.94
2023-08-14T02:01:36.104Z,26.88
2023-08-14T02:04:43.658Z,26.82
2023-08-14T02:07:54.283Z,26.73
2023-08-14T02:11:00.485Z,26.71
2023-08-14T02:14:09.674Z,26.68
2023-08-14T02:17:15.518Z,26.66
2023-08-14T02:20:23.211Z,26.68
2023-08-14T02:23:31.477Z,26.73
2023-08-14T02:26:38.267Z,26.77
2023-08-14T02:29:48.550Z,26.77
2023-08-14T02:32:55.120Z,26.78
2023-08-14T02:36:01.190Z,26.78
2023-08-14T02:39:12.898Z,26.82
2023-08-14T02:42:23.131Z,26.78
2023-08-14T02:45:33.701Z,26.85
2023-08-14T02:48:42.460Z,26.86
2023-08-14T02:51:51.189Z,26.92
2023-08-14T02:54:57.993Z,26.91
2023-08-14T02:58:06.333Z,26.94
2023-08-14T03:01:15.608Z,26.95
2023-08-14T03:04:22.188Z,26.96
2023-08-14T03:07:30.160Z,26.99
2023-08-14T03:10:36.482Z,26.95
2023-08-14T03:13:46.599Z,26.90
2023-08-14T03:16:55.070Z,26.84
2023-08-14T03:20:02.574Z,26.79
2023-08-14T03:23:08.576Z,26.76
2023-08-14T03:26:15.682Z,26.83
2023-08-14T03:29:23.165Z,26.80
2023-08-14T03:32:41.266Z,26.76
2023-08-14T03:35:49.308Z,26.74
2023-08-14T03:38:58.422Z,26.69
2023-08-14T03:42:05.557Z,26.61
2023-08-14T03:45:14.395Z,26.57
2023-08-14T03:48:22.813Z,26.52
2023-08-14T03:51:29.452Z,26.40
2023-08-14T03:54:38.429Z,26.42
2023-08-14T03:57:45.451Z,26.37
2023-08-14T04:00:52.521Z,26.31
2023-08-14T04:04:02.309Z,26.24
2023-08-14T04:07:09.004Z,26.22
2023-08-14T04:10:18.148Z,26.19
2023-08-14T04:13:24.860Z,26.19
2023-08-14T04:16:45.184Z,26.18
2023-08-14T04:19:53.854Z,26.07
2023-08-14T04:23:01.567Z,26.14
2023-08-14T04:26:11.429Z,26.14
2023-08-14T04:29:21.913Z,26.14
2023-08-14T04:32:27.790Z,26.16
2023-08-14T04:35:38.748Z,26.16
2023-08-14T04:38:45.349Z,26.19
2023-08-14T04:41:54.630Z,26.18
2023-08-14T04:45:04.770Z,26.33
2023-08-14T04:48:11.615Z,26.40
2023-08-14T04:51:22.317Z,26.49
2023-08-14T04:54:33.585Z,26.56
2023-08-14T04:57:39.589Z,26.73
2023-08-14T05:00:47.966Z,26.85
2023-08-14T05:03:55.674Z,26.96
2023-08-14T05:07:06.502Z,27.07
2023-08-14T05:10:15.472Z,27.21
2023-08-14T05:13:23.756Z,27.22
2023-08-14T05:16:29.773Z,27.38
2023-08-14T05:19:38.443Z,27.44
2023-08-14T05:22:47.593Z,27.49
2023-08-14T05:25:55.157Z,27.60
2023-08-14T05:29:02.673Z,27.63
2023-08-14T05:32:10.164Z,27.64
2023-08-14T05:35:17.793Z,27.76
2023-08-14T05:38:27.805Z,27.82
2023-08-14T05:41:34.598Z,27.86
2023-08-14T05:44:41.829Z,27.95
2023-08-14T05:47:49.682Z,28.02
2023-08-14T05:50:56.458Z,28.07
2023-08-14T05:54:06.813Z,28.14
2023-08-14T05:57:16.041Z,28.20
2023-08-14T06:00:24.053Z,28.30
2023-08-14T06:03:44.100Z,28.34
2023-08-14T06:06:51.070Z,28.44
2023-08-14T06:10:00.285Z,28.56
2023-08-14T06:13:06.427Z,28.69
2023-08-14T06:16:15.769Z,28.81
2023-08-14T06:19:21.961Z,28.89
2023-08-14T06:22:31.895Z,28.99
2023-08-14T06:25:42.506Z,29.04
2023-08-14T06:28:49.120Z,29.12
2023-08-14T06:31:55.549Z,29.17
2023-08-14T06:35:02.247Z,29.27
2023-08-14T06:38:08.270Z,29.33
2023-08-14T06:41:19.762Z,29.45
2023-08-14T06:44:25.857Z,29.55
2023-08-14T06:47:32.583Z,29.63
2023-08-14T06:50:38.643Z,29.76
2023-08-14T06:53:47.595Z,29.87
2023-08-14T06:56:56.077Z,29.98
2023-08-14T07:00:08.822Z,30.07
2023-08-14T07:03:14.780Z,30.06
2023-08-14T07:06:21.735Z,30.10
2023-08-14T07:09:27.713Z,30.14
2023-08-14T07:12:37.199Z,30.15
2023-08-14T07:15:43.261Z,30.13
2023-08-14T07:18:50.612Z,30.18
2023-08-14T07:21:56.557Z,30.21
2023-08-14T07:25:06.799Z,30.22
2023-08-14T07:28:15.907Z,30.34
2023-08-14T07:31:24.113Z,30.40
2023-08-14T07:34:32.140Z,30.46
2023-08-14T07:37:41.998Z,30.55
2023-08-14T07:40:49.846Z,30.64
2023-08-14T07:44:03.693Z,30.67
2023-08-14T07:47:12.452Z,30.66
2023-08-14T07:50:19.304Z,30.67
2023-08-14T07:53:26.461Z,30.61
2023-08-14T07:56:33.118Z,30.66
2023-08-14T07:59:41.601Z,30.61
2023-08-14T08:02:48.577Z,30.55
2023-08-14T08:05:54.672Z,30.53
2023-08-14T08:09:01.384Z,30.52
2023-08-14T08:12:08.596Z,30.53
2023-08-14T08:15:18.036Z,30.50
2023-08-14T08:18:23.830Z,30.45
2023-08-14T08:21:30.764Z,30.44
2023-08-14T08:24:36.540Z,30.40
2023-08-14T08:27:45.884Z,30.39
2023-08-14T08:30:55.103Z,30.34
2023-08-14T08:34:03.567Z,30.34
2023-08-14T08:37:10.034Z,30.33
2023-08-14T08:40:18.790Z,30.29
2023-08-14T08:43:27.411Z,30.26
2023-08-14T08:46:48.149Z,30.21
2023-08-14T08:49:55.733Z,30.25
2023-08-14T08:53:05.141Z,30.21
2023-08-14T08:56:11.249Z,30.32
2023-08-14T08:59:22.643Z,30.34
2023-08-14T09:02:32.440Z,30.32
2023-08-14T09:05:40.684Z,30.38
2023-08-14T09:08:46.836Z,30.41
2023-08-14T09:11:57.029Z,30.42
2023-08-14T09:15:10.899Z,30.49
2023-08-14T09:18:20.600Z,30.53
2023-08-14T09:21:26.560Z,30.55
2023-08-14T09:24:38.011Z,30.59
2023-08-14T09:27:46.009Z,30.62
2023-08-14T09:30:52.885Z,30.63
2023-08-14T09:34:05.944Z,30.69
2023-08-14T09:37:12.663Z,30.71
2023-08-14T09:40:21.091Z,30.75
2023-08-14T09:43:30.119Z,30.82
2023-08-14T09:46:36.340Z,30.84
2023-08-14T09:49:49.219Z,30.89
2023-08-14T09:52:59.273Z,30.92
2023-08-14T09:56:12.025Z,30.91
2023-08-14T09:59:17.842Z,30.86
2023-08-14T10:02:34.876Z,31.00
2023-08-14T10:05:46.939Z,31.07
2023-08-14T10:09:03.682Z,31.08
2023-08-14T10:12:17.780Z,31.08
2023-08-14T10:15:39.848Z,31.11
2023-08-14T10:18:52.193Z,31.13
2023-08-14T10:22:07.654Z,31.17
2023-08-14T10:25:24.248Z,31.20
2023-08-14T10:28:40.766Z,31.27
2023-08-14T10:31:49.240Z,31.34
2023-08-14T10:34:58.726Z,31.40
2023-08-14T10:38:10.722Z,31.44
2023-08-14T10:41:21.228Z,31.49
2023-08-14T10:44:38.213Z,31.58
2023-08-14T10:47:46.919Z,31.61
2023-08-14T10:51:03.613Z,31.67
2023-08-14T10:54:18.231Z,31.73
2023-08-14T10:57:32.646Z,31.80
2023-08-14T11:00:48.892Z,31.83
2023-08-14T11:04:09.347Z,31.92
2023-08-14T11:07:16.091Z,31.98
2023-08-14T11:10:24.791Z,31.99
2023-08-14T11:13:41.646Z,32.02
2023-08-14T11:16:50.928Z,32.09
2023-08-14T11:19:58.106Z,32.07
2023-08-14T11:23:05.905Z,32.15
2023-08-14T11:26:15.729Z,32.14
2023-08-14T11:29:22.101Z,32.12
2023-08-14T11:32:30.201Z,32.19
2023-08-14T11:35:38.522Z,32.27
2023-08-14T11:38:51.428Z,32.31
2023-08-14T11:42:07.101Z,32.35
2023-08-14T11:45:18.540Z,32.37
2023-08-14T11:48:25.595Z,32.40
2023-08-14T11:51:34.872Z,32.45
2023-08-14T11:54:41.423Z,32.45
2023-08-14T11:57:53.941Z,32.48
2023-08-14T12:01:01.441Z,32.51
2023-08-14T12:04:12.937Z,32.60
2023-08-14T12:07:27.125Z,32.61
2023-08-14T12:10:39.678Z,32.69
2023-08-14T12:13:53.238Z,32.71
2023-08-14T12:17:04.363Z,32.77
2023-08-14T12:20:27.936Z,32.85
2023-08-14T12:23:37.311Z,32.91
2023-08-14T12:26:45.579Z,32.95
2023-08-14T12:29:57.719Z,33.02
2023-08-14T12:33:06.019Z,33.03
2023-08-14T12:36:15.683Z,32.98
2023-08-14T12:39:23.680Z,33.10
2023-08-14T12:42:31.717Z,33.16
2023-08-14T12:45:40.182Z,33.23
2023-08-14T12:48:47.151Z,33.28
2023-08-14T12:52:00.931Z,33.32
2023-08-14T12:55:09.607Z,33.34
2023-08-14T12:58:19.644Z,33.38
2023-08-14T13:01:30.733Z,33.43
2023-08-14T13:04:36.997Z,33.48
2023-08-14T13:07:44.095Z,33.52
2023-08-14T13:10:52.237Z,33.58
2023-08-14T13:13:59.418Z,33.62
2023-08-14T13:17:10.096Z,33.67
2023-08-14T13:20:19.310Z,33.70
2023-08-14T13:23:25.475Z,33.75
2023-08-14T13:26:38.226Z,33.78
2023-08-14T13:29:48.537Z,33.78
2023-08-14T13:33:06.924Z,33.83
2023-08-14T13:36:12.968Z,33.94
2023-08-14T13:39:19.636Z,33.97
2023-08-14T13:42:27.874Z,34.03
2023-08-14T13:45:38.017Z,34.09
2023-08-14T13:48:46.885Z,34.17
2023-08-14T13:51:57.890Z,34.20
2023-08-14T13:55:05.463Z,34.20
2023-08-14T13:58:12.471Z,34.28
2023-08-14T14:01:24.314Z,34.30
2023-08-14T14:04:33.766Z,34.38
2023-08-14T14:07:47.369Z,34.39
2023-08-14T14:10:58.270Z,34.42
2023-08-14T14:14:07.053Z,34.46
2023-08-14T14:17:21.939Z,34.49
2023-08-14T14:20:35.234Z,34.50
2023-08-14T14:23:49.960Z,34.52
2023-08-14T14:26:57.312Z,34.56
2023-08-14T14:30:05.238Z,34.59
2023-08-14T14:33:11.559Z,34.62
2023-08-14T14:36:21.523Z,34.63
2023-08-14T14:39:27.283Z,34.73
2023-08-14T14:42:34.948Z,34.74
2023-08-14T14:45:44.671Z,34.75
2023-08-14T14:48:54.406Z,34.73
2023-08-14T14:52:09.057Z,34.73
2023-08-14T14:55:18.951Z,34.74
2023-08-14T14:58:29.742Z,34.85
2023-08-14T15:01:38.121Z,34.87
2023-08-14T15:04:44.760Z,34.88
2023-08-14T15:07:54.628Z,34.92
2023-08-14T15:11:00.491Z,34.97
2023-08-14T15:14:08.253Z,35.01
2023-08-14T15:17:15.066Z,35.05
2023-08-14T15:20:29.521Z,35.04
2023-08-14T15:23:37.953Z,35.03
2023-08-14T15:26:52.304Z,35.06
2023-08-14T15:30:01.229Z,35.10
2023-08-14T15:33:13.362Z,35.18
2023-08-14T15:36:19.981Z,35.31
2023-08-14T15:39:34.147Z,35.63
2023-08-14T15:42:41.039Z,36.15
2023-08-14T15:45:49.026Z,36.75
2023-08-14T15:48:57.301Z,37.36
2023-08-14T15:52:04.042Z,37.94
2023-08-14T15:55:13.480Z,38.50
2023-08-14T15:58:20.686Z,38.88
2023-08-14T16:01:27.123Z,39.30
2023-08-14T16:04:37.199Z,39.73
2023-08-14T16:07:45.609Z,40.10
2023-08-14T16:10:58.417Z,40.49
2023-08-14T16:14:10.333Z,40.68
2023-08-14T16:17:18.800Z,41.01
2023-08-14T16:20:26.630Z,41.14
2023-08-14T16:23:33.433Z,41.40
2023-08-14T16:26:41.874Z,41.50
2023-08-14T16:29:49.666Z,41.60
2023-08-14T16:32:55.668Z,41.87
2023-08-14T16:36:05.173Z,42.00
2023-08-14T16:39:14.620Z,42.03
2023-08-14T16:42:24.900Z,42.03
2023-08-14T16:45:30.876Z,41.99
2023-08-14T16:48:37.796Z,41.85
2023-08-14T16:51:43.583Z,41.72
2023-08-14T16:54:51.295Z,41.42
2023-08-14T16:57:59.896Z,41.13
2023-08-14T17:01:10.164Z,40.81
2023-08-14T17:04:18.966Z,40.42
2023-08-14T17:07:27.645Z,39.98
2023-08-14T17:10:37.320Z,39.50
2023-08-14T17:13:46.676Z,38.95
2023-08-14T17:16:55.297Z,38.36
2023-08-14T17:20:02.195Z,37.92
2023-08-14T17:23:10.076Z,37.52
2023-08-14T17:26:17.038Z,37.18
2023-08-14T17:29:25.477Z,36.82
2023-08-14T17:32:34.028Z,36.48
2023-08-14T17:35:40.114Z,36.19
2023-08-14T17:38:49.258Z,35.96
2023-08-14T17:41:58.213Z,35.72
2023-08-14T17:45:10.855Z,35.47
2023-08-14T17:48:23.169Z,35.25
2023-08-14T17:51:29.860Z,35.04
2023-08-14T17:54:38.175Z,34.78
2023-08-14T17:57:44.936Z,34.60
2023-08-14T18:00:53.822Z,34.35
2023-08-14T18:04:02.560Z,34.20
2023-08-14T18:07:09.233Z,34.02
2023-08-14T18:10:15.949Z,33.83
2023-08-14T18:13:22.542Z,33.62
2023-08-14T18:16:33.893Z,33.41
2023-08-14T18:19:39.862Z,33.24
2023-08-14T18:22:48.535Z,33.08
2023-08-14T18:25:57.493Z,32.95
2023-08-14T18:29:05.360Z,32.82
2023-08-14T18:32:14.134Z,32.63
2023-08-14T18:35:23.273Z,32.49
2023-08-14T18:38:29.134Z,32.24
2023-08-14T18:41:38.192Z,32.13
2023-08-14T18:44:44.059Z,31.93
2023-08-14T18:47:55.312Z,31.76
2023-08-14T18:51:01.384Z,31.63
2023-08-14T18:54:09.347Z,31.51
2023-08-14T18:57:15.112Z,31.38
2023-08-14T19:00:22.094Z,31.30
2023-08-14T19:03:35.631Z,31.19
2023-08-14T19:06:44.709Z,31.09
2023-08-14T19:09:51.492Z,31.00
2023-08-14T19:13:02.290Z,30.89
2023-08-14T19:16:12.409Z,30.78
2023-08-14T19:19:24.942Z,30.67
2023-08-14T19:22:31.096Z,30.57
2023-08-14T19:25:40.135Z,30.49
2023-08-14T19:28:46.706Z,30.39
2023-08-14T19:31:58.584Z,30.31
2023-08-14T19:35:08.430Z,30.24
2023-08-14T19:38:15.167Z,30.16
2023-08-14T19:41:21.208Z,30.07
2023-08-14T19:44:28.265Z,29.98
2023-08-14T19:47:34.071Z,29.91
2023-08-14T19:50:49.037Z,29.83
2023-08-14T19:53:56.395Z,29.73
2023-08-14T19:57:03.807Z,29.62
2023-08-14T20:00:11.998Z,29.56
2023-08-14T20:03:20.076Z,29.48
2023-08-14T20:06:29.113Z,29.44
2023-08-14T20:09:36.721Z,29.41
2023-08-14T20:12:43.675Z,29.34
2023-08-14T20:15:51.647Z,29.27
2023-08-14T20:18:57.536Z,29.18
2023-08-14T20:22:12.547Z,29.11
2023-08-14T20:25:18.537Z,29.03
2023-08-14T20:28:27.447Z,28.97
2023-08-14T20:31:33.521Z,28.88
2023-08-14T20:34:40.255Z,28.81
2023-08-14T20:37:48.693Z,28.72
2023-08-14T20:40:59.303Z,28.64
2023-08-14T20:44:05.143Z,28.55
2023-08-14T20:47:14.951Z,28.50
2023-08-14T20:50:20.906Z,28.41
2023-08-14T20:53:30.334Z,28.32
2023-08-14T20:56:38.136Z,28.24
2023-08-14T20:59:45.956Z,28.14
2023-08-14T21:02:51.966Z,28.05
2023-08-14T21:05:58.823Z,27.97
2023-08-14T21:09:08.173Z,27.92
2023-08-14T21:27:09.691Z,27.60
2023-08-14T21:30:50.811Z,27.51
2023-08-14T21:33:57.283Z,27.43
2023-08-14T21:37:07.400Z,27.36
2023-08-14T21:40:15.229Z,27.34
2023-08-14T21:43:21.974Z,27.28
2023-08-14T21:46:35.587Z,27.21
2023-08-14T21:49:42.429Z,27.16
2023-08-14T21:52:48.274Z,27.03
2023-08-14T21:55:56.890Z,27.06
2023-08-14T21:59:03.257Z,27.01
2023-08-14T22:02:12.572Z,26.82
2023-08-14T22:05:18.578Z,26.92
2023-08-14T22:08:25.515Z,26.85
2023-08-14T22:11:32.367Z,26.81
2023-08-14T22:14:39.439Z,26.78
2023-08-14T22:17:48.380Z,26.72
2023-08-14T22:20:58.170Z,26.67
2023-08-14T22:33:41.699Z,26.51
2023-08-14T22:36:51.367Z,26.45
2023-08-14T22:39:57.260Z,26.42
2023-08-14T22:43:04.016Z,26.34
2023-08-14T22:46:09.839Z,26.30
2023-08-14T22:49:19.170Z,26.23
2023-08-14T22:52:25.136Z,26.20
2023-08-14T22:55:33.165Z,26.20
2023-08-14T22:58:38.945Z,26.19
2023-08-14T23:01:46.942Z,26.18
2023-08-14T23:05:05.444Z,26.21
2023-08-14T23:08:12.077Z,26.20
2023-08-14T23:11:18.524Z,26.17
2023-08-14T23:14:27.235Z,26.14
2023-08-14T23:17:33.032Z,26.10
2023-08-14T23:20:46.862Z,26.08
2023-08-14T23:38:22.222Z,25.97
2023-08-14T23:41:28.255Z,25.91
2023-08-14T23:44:43.020Z,25.84
2023-08-14T23:47:49.177Z,25.79
2023-08-14T23:50:55.862Z,25.78
2023-08-14T23:58:55.625Z,25.74
